Time;durP1;ratioP1;P1;durP2;ratioP2;P2;SDS_P1;SDS_P2;PMS_P1;PMS_P2;Temp;Humidity;BMP_temperature;BMP_pressure;BME280_temperature;BME280_humidity;BME280_pressure;Samples;Min_cycle;Max_cycle;Signal;HPM_P1;HPM_P2
2023/03/01 06:02:20;;;;;;;26.17;13.33;;;-2.50;56.80;;;;;;6352672;22;20700;-93
2023/03/01 06:04:47;;;;;;;27.17;14.20;;;-2.50;32.20;;;;;;6371506;22;20248;-92
2023/03/01 06:07:14;;;;;;;37.73;18.27;;;-2.50;56.20;;;;;;6372006;22;20165;-92
2023/03/01 06:09:41;;;;;;;47.47;22.83;;;-2.50;99.90;;;;;;6371851;22;20189;-91
2023/03/01 06:12:07;;;;;;;48.60;19.47;;;-2.40;99.90;;;;;;6371617;22;20171;-90
2023/03/01 06:14:34;;;;;;;57.67;23.70;;;-2.30;99.90;;;;;;6370851;22;20637;-90
2023/03/01 06:17:01;;;;;;;75.70;34.23;;;-2.30;99.90;;;;;;6371199;22;20272;-89
2023/03/01 06:19:29;;;;;;;71.57;32.40;;;-2.20;99.90;;;;;;6371089;22;20251;-90
2023/03/01 06:21:56;;;;;;;69.93;32.33;;;-2.10;99.90;;;;;;6370633;22;20179;-89
2023/03/01 06:24:23;;;;;;;61.90;30.00;;;-2.00;99.90;;;;;;6370965;22;20172;-89
2023/03/01 06:26:49;;;;;;;86.77;33.30;;;-1.90;99.90;;;;;;6371630;22;20248;-90
2023/03/01 06:29:16;;;;;;;64.73;28.33;;;-1.80;99.90;;;;;;6372354;22;20165;-90
2023/03/01 06:31:43;;;;;;;60.13;27.97;;;-1.70;99.90;;;;;;6372972;22;20165;-89
2023/03/01 06:34:13;;;;;;;55.67;28.23;;;-1.60;99.90;;;;;;6373012;22;20168;-89
2023/03/01 06:36:41;;;;;;;57.43;28.73;;;-1.50;99.90;;;;;;6372518;22;20172;-89
2023/03/01 06:39:08;;;;;;;50.50;26.10;;;-1.40;99.90;;;;;;6372719;22;20165;-90
2023/03/01 06:41:35;;;;;;;104.17;41.37;;;-1.30;99.90;;;;;;6372390;22;20199;-89
2023/03/01 06:44:02;;;;;;;241.27;87.40;;;-1.20;99.90;;;;;;6372578;22;20179;-88
2023/03/01 06:46:29;;;;;;;222.17;78.20;;;-1.10;96.40;;;;;;6372741;22;20258;-89
2023/03/01 06:48:56;;;;;;;108.13;42.27;;;-1.10;99.50;;;;;;6373015;22;20165;-90
2023/03/01 06:51:22;;;;;;;67.33;30.23;;;-1.00;94.60;;;;;;6372724;22;20196;-89
2023/03/01 06:53:50;;;;;;;59.70;28.17;;;-0.80;81.20;;;;;;6372689;22;20165;-89
2023/03/01 06:56:17;;;;;;;83.13;33.10;;;-0.80;83.10;;;;;;6372586;22;20171;-90
2023/03/01 06:58:44;;;;;;;39.70;20.03;;;-0.70;74.40;;;;;;6372409;22;20168;-90
2023/03/01 07:01:11;;;;;;;35.03;17.80;;;-0.60;56.60;;;;;;6372740;22;20162;-90
2023/03/01 07:03:37;;;;;;;34.07;18.07;;;-0.50;34.80;;;;;;6372568;22;20176;-90
2023/03/01 07:06:04;;;;;;;44.57;20.33;;;-0.50;31.70;;;;;;6372415;22;20169;-90
2023/03/01 07:08:31;;;;;;;56.10;21.57;;;-0.40;30.50;;;;;;6372242;22;20208;-90
2023/03/01 07:11:01;;;;;;;39.93;19.37;;;-0.30;36.80;;;;;;6372671;22;20188;-90
2023/03/01 07:13:28;;;;;;;39.60;19.30;;;-0.20;38.50;;;;;;6372340;22;20219;-90
2023/03/01 07:15:55;;;;;;;32.00;16.70;;;0.00;23.70;;;;;;6372231;22;20622;-90
2023/03/01 07:18:22;;;;;;;37.33;16.50;;;0.10;6.90;;;;;;6372629;22;20506;-89
2023/03/01 07:20:49;;;;;;;25.83;13.53;;;0.20;1.00;;;;;;6372042;22;20165;-89
2023/03/01 07:23:15;;;;;;;32.37;16.53;;;0.20;1.00;;;;;;6372561;22;20165;-90
2023/03/01 07:25:42;;;;;;;29.07;15.00;;;0.40;1.00;;;;;;6372520;22;20169;-90
2023/03/01 07:28:10;;;;;;;32.83;15.50;;;0.40;1.00;;;;;;6372491;22;20166;-90
2023/03/01 07:30:37;;;;;;;31.10;15.63;;;0.60;1.00;;;;;;6372784;22;20192;-90
2023/03/01 07:33:04;;;;;;;29.23;14.13;;;0.70;1.00;;;;;;6372435;22;20165;-90
2023/03/01 07:35:33;;;;;;;28.03;13.00;;;0.80;1.00;;;;;;6372385;22;20614;-89
2023/03/01 07:38:00;;;;;;;28.53;13.47;;;0.90;1.00;;;;;;6372359;22;20227;-90
2023/03/01 07:40:26;;;;;;;30.73;15.20;;;1.10;1.00;;;;;;6372303;22;20168;-90
2023/03/01 07:42:57;;;;;;;29.00;13.83;;;1.20;1.00;;;;;;6372013;22;20505;-90
2023/03/01 07:45:26;;;;;;;24.20;13.70;;;1.30;1.00;;;;;;6372269;22;20162;-89
2023/03/01 07:47:53;;;;;;;41.40;21.03;;;1.50;1.00;;;;;;6372240;22;20191;-89
2023/03/01 07:50:20;;;;;;;62.93;29.43;;;1.60;1.00;;;;;;6371881;22;20522;-89
2023/03/01 07:52:47;;;;;;;39.17;18.57;;;1.70;1.00;;;;;;6372069;22;20170;-90
2023/03/01 07:55:14;;;;;;;30.77;14.60;;;1.70;1.00;;;;;;6372204;22;20171;-90
2023/03/01 07:57:41;;;;;;;28.57;14.43;;;1.80;1.00;;;;;;6372293;22;20196;-90
2023/03/01 08:00:10;;;;;;;25.70;13.20;;;1.90;1.00;;;;;;6372005;22;20166;-89
2023/03/01 08:02:38;;;;;;;18.33;9.60;;;2.00;1.00;;;;;;6371712;22;20193;-90
2023/03/01 08:05:06;;;;;;;19.43;10.23;;;2.00;1.00;;;;;;6371867;22;20540;-90
2023/03/01 08:07:33;;;;;;;29.33;15.30;;;2.00;1.00;;;;;;6371757;22;20174;-90
2023/03/01 08:10:00;;;;;;;20.10;11.57;;;2.00;1.00;;;;;;6371406;22;20193;-90
2023/03/01 08:12:27;;;;;;;53.40;24.70;;;2.10;1.00;;;;;;6371264;22;20639;-89
2023/03/01 08:14:54;;;;;;;123.83;45.57;;;2.10;1.00;;;;;;6371890;22;20170;-90
2023/03/01 08:17:21;;;;;;;21.67;10.97;;;2.20;1.00;;;;;;6371925;22;20175;-90
2023/03/01 08:19:49;;;;;;;18.97;9.63;;;2.20;1.00;;;;;;6371981;22;20173;-89
2023/03/01 08:22:16;;;;;;;16.57;9.60;;;2.30;1.00;;;;;;6371927;22;20499;-90
2023/03/01 08:24:43;;;;;;;14.80;7.00;;;2.40;1.00;;;;;;6371269;22;20657;-89
2023/03/01 08:27:11;;;;;;;11.73;6.87;;;2.50;1.00;;;;;;6371811;22;20229;-90
2023/03/01 08:29:38;;;;;;;11.17;6.90;;;2.60;1.00;;;;;;6371975;22;20170;-90
2023/03/01 08:32:05;;;;;;;20.53;9.00;;;2.70;1.00;;;;;;6371739;22;20190;-90
2023/03/01 08:34:35;;;;;;;14.13;7.70;;;2.80;1.00;;;;;;6371303;22;20173;-89
2023/03/01 08:37:03;;;;;;;14.90;7.43;;;2.80;1.00;;;;;;6371271;22;20166;-90
2023/03/01 08:39:30;;;;;;;10.73;6.50;;;2.90;1.00;;;;;;6371570;22;20171;-90
2023/03/01 08:41:58;;;;;;;19.50;9.97;;;3.00;1.00;;;;;;6371216;22;20648;-89
2023/03/01 08:44:25;;;;;;;15.03;7.10;;;3.00;1.00;;;;;;6371250;22;20643;-90
2023/03/01 08:46:53;;;;;;;13.13;6.53;;;3.20;1.00;;;;;;6371613;22;20167;-90
2023/03/01 08:49:20;;;;;;;13.93;7.47;;;3.30;1.00;;;;;;6371370;22;20171;-90
2023/03/01 08:51:48;;;;;;;16.07;7.43;;;3.40;1.00;;;;;;6371195;22;20188;-90
2023/03/01 08:54:19;;;;;;;13.63;6.60;;;3.50;1.00;;;;;;6371258;22;20165;-90
2023/03/01 08:56:46;;;;;;;13.80;6.70;;;3.60;1.00;;;;;;6371334;22;20599;-91
2023/03/01 08:59:14;;;;;;;12.80;6.30;;;3.80;1.00;;;;;;6371860;22;20174;-91
2023/03/01 09:01:43;;;;;;;10.50;5.87;;;3.80;1.00;;;;;;6371605;22;20267;-91
2023/03/01 09:04:09;;;;;;;10.73;6.43;;;3.90;1.00;;;;;;6371844;22;20613;-90
2023/03/01 09:06:37;;;;;;;10.77;5.47;;;4.00;99.90;;;;;;6371576;22;20168;-90
2023/03/01 09:09:05;;;;;;;8.60;5.27;;;4.00;99.90;;;;;;6371683;22;20169;-91
2023/03/01 09:11:33;;;;;;;19.20;11.00;;;4.10;99.90;;;;;;6371182;22;20192;-90
2023/03/01 09:14:00;;;;;;;9.77;5.60;;;4.10;99.90;;;;;;6371566;22;20214;-90
2023/03/01 09:16:26;;;;;;;8.60;4.50;;;4.20;99.90;;;;;;6371558;22;20165;-90
2023/03/01 09:18:55;;;;;;;22.23;11.50;;;4.20;99.90;;;;;;6371670;22;20362;-91
2023/03/01 09:21:24;;;;;;;20.53;10.87;;;4.40;99.90;;;;;;6371122;22;20161;-91
2023/03/01 09:23:51;;;;;;;13.17;7.40;;;4.50;99.90;;;;;;6371409;22;20638;-90
2023/03/01 09:26:21;;;;;;;35.20;24.20;;;4.40;99.90;;;;;;6371467;22;20247;-91
2023/03/01 09:28:49;;;;;;;28.30;17.33;;;4.40;99.90;;;;;;6371547;22;20169;-91
2023/03/01 09:31:18;;;;;;;17.57;9.53;;;4.50;99.90;;;;;;6371525;22;20185;-90
2023/03/01 09:33:48;;;;;;;27.57;15.93;;;4.50;99.90;;;;;;6371201;22;20175;-91
2023/03/01 09:36:17;;;;;;;25.73;14.87;;;4.60;99.90;;;;;;6371351;22;20506;-90
2023/03/01 09:38:44;;;;;;;16.70;8.03;;;4.70;99.90;;;;;;6371031;22;20173;-90
2023/03/01 09:41:20;;;;;;;33.97;13.03;;;4.70;99.90;;;;;;6370910;22;20623;-90
2023/03/01 09:43:53;;;;;;;24.43;13.20;;;4.80;99.90;;;;;;6371050;22;20150;-90
2023/03/01 09:46:23;;;;;;;17.47;8.27;;;4.90;99.90;;;;;;6371178;22;20150;-90
2023/03/01 09:48:53;;;;;;;26.83;14.27;;;4.90;99.90;;;;;;6371368;22;20172;-90
2023/03/01 09:51:26;;;;;;;96.83;29.07;;;4.90;99.90;;;;;;6370913;22;20182;-91
2023/03/01 09:53:56;;;;;;;78.60;27.67;;;5.00;99.90;;;;;;6370872;22;20153;-90
2023/03/01 09:56:30;;;;;;;60.87;23.90;;;5.00;99.90;;;;;;6370613;22;20169;-90
2023/03/01 09:59:12;;;;;;;61.57;27.37;;;5.00;99.90;;;;;;6370865;22;20146;-90
2023/03/01 10:01:44;;;;;;;83.90;36.13;;;5.00;99.90;;;;;;6370887;22;20195;-90
2023/03/01 10:04:32;;;;;;;30.63;14.47;;;5.00;99.90;;;;;;6373343;22;20661;-90
2023/03/01 10:07:13;;;;;;;197.20;62.83;;;5.10;99.90;;;;;;6372649;22;20160;-90
2023/03/01 10:09:42;;;;;;;138.13;51.97;;;5.20;99.90;;;;;;6373225;22;20155;-89
2023/03/01 10:12:11;;;;;;;46.90;23.30;;;5.30;99.90;;;;;;6372961;22;20272;-90
2023/03/01 10:14:49;;;;;;;23.57;11.80;;;5.40;99.90;;;;;;6373207;22;20172;-90
2023/03/01 10:17:25;;;;;;;10.17;5.70;;;5.50;99.90;;;;;;6373086;22;20152;-90
2023/03/01 10:19:52;;;;;;;14.33;6.57;;;5.70;99.90;;;;;;6373273;22;20157;-90
2023/03/01 10:22:22;;;;;;;19.50;9.03;;;5.80;99.90;;;;;;6372804;22;20162;-90
2023/03/01 10:24:50;;;;;;;28.57;15.27;;;5.90;99.90;;;;;;6372977;22;20173;-90
2023/03/01 10:27:23;;;;;;;15.40;9.10;;;5.90;99.90;;;;;;6372727;22;20165;-90
2023/03/01 10:29:59;;;;;;;37.10;18.20;;;6.00;99.90;;;;;;6373157;22;20203;-90
2023/03/01 10:32:26;;;;;;;28.17;14.57;;;5.90;99.90;;;;;;6372990;22;20180;-90
2023/03/01 10:34:53;;;;;;;14.50;8.23;;;5.90;99.90;;;;;;6372761;22;20165;-90
2023/03/01 10:37:24;;;;;;;119.40;72.90;;;5.90;99.90;;;;;;6373037;22;20232;-91
2023/03/01 10:39:59;;;;;;;23.67;14.27;;;5.90;99.90;;;;;;6372628;22;20156;-90
2023/03/01 10:42:32;;;;;;;33.43;19.50;;;5.90;99.90;;;;;;6373140;22;20162;-91
2023/03/01 10:45:16;;;;;;;16.03;10.20;;;5.90;99.90;;;;;;6372877;22;20624;-90
2023/03/01 10:47:43;;;;;;;16.60;10.07;;;5.90;99.90;;;;;;6372520;22;20600;-91
2023/03/01 10:50:21;;;;;;;17.77;9.73;;;6.00;99.90;;;;;;6372397;22;20163;-90
2023/03/01 10:52:58;;;;;;;17.47;10.53;;;6.10;99.90;;;;;;6372874;22;20256;-90
2023/03/01 10:55:31;;;;;;;17.27;9.33;;;6.20;99.90;;;;;;6372867;22;20156;-91
2023/03/01 10:58:09;;;;;;;17.97;9.80;;;6.20;99.90;;;;;;6372814;22;20150;-90
2023/03/01 11:00:47;;;;;;;19.67;9.90;;;6.20;99.90;;;;;;6372851;22;20150;-91
2023/03/01 11:03:17;;;;;;;23.40;7.93;;;6.30;99.90;;;;;;6372421;22;20205;-90
2023/03/01 11:06:04;;;;;;;16.93;9.27;;;6.30;99.90;;;;;;6372425;22;20604;-90
2023/03/01 11:08:37;;;;;;;17.70;10.20;;;6.30;99.90;;;;;;6372845;22;20147;-90
2023/03/01 11:11:17;;;;;;;30.33;20.60;;;6.40;99.90;;;;;;6372628;22;20187;-90
2023/03/01 11:13:52;;;;;;;19.63;10.00;;;6.40;99.90;;;;;;6371974;22;20154;-90
2023/03/01 11:16:27;;;;;;;24.50;14.67;;;6.50;99.90;;;;;;6372493;22;20591;-91
2023/03/01 11:18:59;;;;;;;21.70;11.93;;;6.50;99.90;;;;;;6372221;22;20164;-90
2023/03/01 11:21:29;;;;;;;22.80;14.70;;;6.60;99.90;;;;;;6372645;22;20168;-90
2023/03/01 11:23:55;;;;;;;15.70;9.10;;;6.60;99.90;;;;;;6372550;22;20175;-90
2023/03/01 11:26:23;;;;;;;22.50;10.63;;;6.70;99.90;;;;;;6372707;22;20172;-90
2023/03/01 11:28:54;;;;;;;20.77;9.77;;;6.70;99.90;;;;;;6372398;22;20617;-91
2023/03/01 11:31:22;;;;;;;21.27;13.27;;;6.70;99.90;;;;;;6372082;22;20180;-90
2023/03/01 11:33:57;;;;;;;18.33;9.80;;;6.80;99.90;;;;;;6371909;22;20169;-90
2023/03/01 11:36:32;;;;;;;20.27;10.80;;;6.80;99.90;;;;;;6372322;22;20156;-91
2023/03/01 11:39:04;;;;;;;21.03;12.13;;;6.90;99.90;;;;;;6372538;22;20157;-90
2023/03/01 11:41:34;;;;;;;31.43;14.30;;;6.90;99.90;;;;;;6372033;22;20470;-91
2023/03/01 11:44:06;;;;;;;17.67;10.13;;;6.90;99.90;;;;;;6371870;22;20186;-91
2023/03/01 11:47:11;;;;;;;16.83;8.80;;;6.90;99.90;;;;;;6371763;22;20174;-90
2023/03/01 11:49:58;;;;;;;16.70;7.40;;;6.90;99.90;;;;;;6372186;22;20210;-91
2023/03/01 11:52:36;;;;;;;24.50;11.83;;;7.00;99.90;;;;;;6372285;22;20629;-91
2023/03/01 11:55:19;;;;;;;25.03;12.87;;;7.00;99.90;;;;;;6372323;22;20175;-91
2023/03/01 11:58:08;;;;;;;47.40;22.53;;;7.00;99.90;;;;;;6372239;22;20154;-91
2023/03/01 12:00:52;;;;;;;19.50;9.83;;;7.00;99.90;;;;;;6372459;22;20486;-90
2023/03/01 12:03:29;;;;;;;19.77;10.50;;;7.00;99.90;;;;;;6371685;22;20197;-90
2023/03/01 12:06:37;;;;;;;15.87;8.70;;;7.00;99.90;;;;;;6371977;22;20158;-91
2023/03/01 12:09:19;;;;;;;36.03;17.80;;;7.10;99.90;;;;;;6372241;22;20598;-91
2023/03/01 12:12:03;;;;;;;13.57;8.80;;;7.00;99.90;;;;;;6372164;22;20259;-90
2023/03/01 12:14:44;;;;;;;14.87;9.03;;;7.00;99.90;;;;;;6372162;22;20162;-91
2023/03/01 12:17:34;;;;;;;13.93;8.23;;;7.10;99.90;;;;;;6371885;22;20152;-91
2023/03/01 12:20:18;;;;;;;18.23;11.30;;;7.10;99.90;;;;;;6372067;22;20157;-90
2023/03/01 12:23:00;;;;;;;20.87;10.77;;;7.20;99.90;;;;;;6371861;22;20626;-91
2023/03/01 12:25:35;;;;;;;17.00;10.37;;;7.10;99.90;;;;;;6371319;22;20598;-90
2023/03/01 12:28:19;;;;;;;13.70;7.93;;;7.10;99.90;;;;;;6371801;22;20595;-91
2023/03/01 12:31:06;;;;;;;23.23;13.40;;;7.00;99.90;;;;;;6372060;22;20150;-90
2023/03/01 12:33:42;;;;;;;13.03;7.40;;;7.00;99.90;;;;;;6371774;22;20157;-90
2023/03/01 12:36:33;;;;;;;12.93;7.80;;;7.10;99.90;;;;;;6372001;22;20188;-91
2023/03/01 12:39:17;;;;;;;15.47;9.07;;;7.10;99.90;;;;;;6371680;22;20159;-91
2023/03/01 12:41:48;;;;;;;13.57;7.43;;;7.00;99.90;;;;;;6372050;22;20145;-91
2023/03/01 12:44:39;;;;;;;12.83;8.40;;;7.10;99.90;;;;;;6371528;22;20158;-90
2023/03/01 12:47:20;;;;;;;11.17;6.97;;;7.10;99.90;;;;;;6356249;22;20177;-91
2023/03/01 12:49:51;;;;;;;11.63;7.60;;;7.20;99.90;;;;;;6371557;22;20157;-91
2023/03/01 12:52:27;;;;;;;13.83;8.00;;;7.20;99.90;;;;;;6371648;22;20177;-90
2023/03/01 12:54:59;;;;;;;15.63;8.77;;;7.20;99.90;;;;;;6371522;22;20154;-91
2023/03/01 12:57:36;;;;;;;13.07;6.27;;;7.20;99.90;;;;;;6371139;22;20622;-90
2023/03/01 13:00:18;;;;;;;11.10;6.27;;;7.30;99.90;;;;;;6371751;22;20156;-90
2023/03/01 13:02:54;;;;;;;11.57;7.37;;;7.30;99.90;;;;;;6370824;22;20532;-91
2023/03/01 13:05:29;;;;;;;10.90;6.40;;;7.40;99.90;;;;;;6371678;22;20152;-90
2023/03/01 13:08:05;;;;;;;12.00;6.87;;;7.40;99.90;;;;;;6371451;22;20156;-91
2023/03/01 13:10:40;;;;;;;13.73;5.93;;;7.50;99.90;;;;;;6371597;22;20149;-90
2023/03/01 13:13:19;;;;;;;9.80;6.80;;;7.50;99.90;;;;;;6371227;22;20173;-91
2023/03/01 13:15:47;;;;;;;12.77;6.53;;;7.50;99.90;;;;;;6371291;22;20153;-91
2023/03/01 13:18:32;;;;;;;9.53;7.10;;;7.60;99.90;;;;;;6371343;22;20170;-91
2023/03/01 13:21:01;;;;;;;13.80;6.43;;;7.60;99.90;;;;;;6371273;22;20215;-91
2023/03/01 13:23:31;;;;;;;12.90;6.80;;;7.60;99.90;;;;;;6371023;22;20169;-91
2023/03/01 13:26:05;;;;;;;11.73;7.03;;;7.60;99.90;;;;;;6371054;22;20630;-91
2023/03/01 13:28:55;;;;;;;15.83;7.30;;;7.60;99.90;;;;;;6371653;22;20150;-91
2023/03/01 13:31:59;;;;;;;16.00;7.40;;;7.60;99.90;;;;;;6363546;22;20514;-91
2023/03/01 13:34:44;;;;;;;11.63;6.50;;;7.60;99.90;;;;;;6371522;22;20536;-91
2023/03/01 13:37:19;;;;;;;9.50;6.37;;;7.60;99.90;;;;;;6371404;22;20166;-90
2023/03/01 13:39:46;;;;;;;13.97;6.50;;;7.70;99.90;;;;;;6371317;22;20158;-91
2023/03/01 13:42:40;;;;;;;11.40;6.80;;;7.70;99.90;;;;;;6371501;22;20248;-91
2023/03/01 13:45:18;;;;;;;11.87;6.93;;;7.70;99.90;;;;;;6365028;22;20201;-91
2023/03/01 13:47:48;;;;;;;12.07;7.27;;;7.70;99.90;;;;;;6371432;22;20154;-91
2023/03/01 13:50:20;;;;;;;13.17;6.97;;;7.70;99.90;;;;;;6370967;22;20209;-91
2023/03/01 13:52:52;;;;;;;14.83;8.20;;;7.80;99.90;;;;;;6371427;22;20179;-91
2023/03/01 13:55:23;;;;;;;20.10;10.87;;;7.80;99.90;;;;;;6371925;22;20151;-92
2023/03/01 13:57:57;;;;;;;14.97;8.80;;;7.80;99.90;;;;;;6371714;22;20150;-91
2023/03/01 14:00:30;;;;;;;22.20;11.33;;;7.80;99.90;;;;;;6371228;22;20206;-91
2023/03/01 14:03:13;;;;;;;27.70;14.70;;;7.80;99.90;;;;;;6371079;22;20521;-91
2023/03/01 14:05:42;;;;;;;13.77;8.00;;;7.70;99.90;;;;;;6370959;22;20164;-91
2023/03/01 14:08:21;;;;;;;11.93;7.30;;;7.70;99.90;;;;;;6371431;22;20166;-91
2023/03/01 14:11:00;;;;;;;22.67;11.57;;;7.80;99.90;;;;;;6371445;22;20157;-90
2023/03/01 14:13:44;;;;;;;13.77;8.17;;;7.80;99.90;;;;;;6371537;22;20173;-91
2023/03/01 14:16:33;;;;;;;37.27;21.57;;;7.80;99.90;;;;;;6371539;22;20151;-91
2023/03/01 14:19:16;;;;;;;12.33;7.10;;;7.70;99.90;;;;;;6371588;22;20150;-90
2023/03/01 14:21:43;;;;;;;14.23;7.97;;;7.70;99.90;;;;;;6371482;22;20155;-91
2023/03/01 14:24:18;;;;;;;25.80;12.20;;;7.70;99.90;;;;;;6371338;22;20172;-92
2023/03/01 14:26:45;;;;;;;22.40;11.90;;;7.60;99.90;;;;;;6371638;22;20162;-91
2023/03/01 14:29:33;;;;;;;15.53;7.57;;;7.70;99.90;;;;;;6371569;22;20468;-91
2023/03/01 14:32:11;;;;;;;13.40;7.37;;;7.60;99.90;;;;;;6371252;22;20181;-91
2023/03/01 14:34:44;;;;;;;52.37;23.57;;;7.70;99.90;;;;;;6371514;22;20157;-92
2023/03/01 14:37:11;;;;;;;30.67;15.90;;;7.70;99.90;;;;;;6371269;22;20155;-92
2023/03/01 14:39:38;;;;;;;21.70;11.63;;;7.70;99.90;;;;;;6370950;22;20946;-92
2023/03/01 14:42:06;;;;;;;30.43;15.23;;;7.70;99.90;;;;;;6370857;22;20637;-92
2023/03/01 14:44:37;;;;;;;28.20;12.93;;;7.60;99.90;;;;;;6371413;22;20204;-92
2023/03/01 14:47:05;;;;;;;16.03;8.63;;;7.60;99.90;;;;;;6371154;22;20169;-92
2023/03/01 14:49:33;;;;;;;14.87;8.90;;;7.50;99.90;;;;;;6372489;22;20168;-91
2023/03/01 14:52:03;;;;;;;19.63;8.90;;;7.50;99.90;;;;;;6373337;22;20185;-91
2023/03/01 14:54:37;;;;;;;13.93;7.53;;;7.50;99.90;;;;;;6373153;22;20553;-91
2023/03/01 14:57:04;;;;;;;15.53;9.30;;;7.50;99.90;;;;;;6372530;22;20241;-91
2023/03/01 14:59:33;;;;;;;16.40;7.90;;;7.50;99.90;;;;;;6372337;22;20165;-91
2023/03/01 15:02:02;;;;;;;15.47;9.37;;;7.50;99.90;;;;;;6372905;22;20670;-92
2023/03/01 15:04:30;;;;;;;14.67;8.83;;;7.50;99.90;;;;;;6373347;22;20165;-91
2023/03/01 15:07:04;;;;;;;15.67;8.80;;;7.50;99.90;;;;;;6372809;22;20162;-91
2023/03/01 15:09:33;;;;;;;14.13;8.80;;;7.50;99.90;;;;;;6373319;22;20154;-90
2023/03/01 15:12:00;;;;;;;14.10;8.67;;;7.50;99.90;;;;;;6372906;22;20166;-91
2023/03/01 15:14:40;;;;;;;15.07;9.40;;;7.40;99.90;;;;;;6373060;22;20245;-90
2023/03/01 15:17:23;;;;;;;14.70;7.90;;;7.40;99.90;;;;;;6372800;22;20206;-91
2023/03/01 15:19:50;;;;;;;12.40;8.07;;;7.40;99.90;;;;;;6372771;22;20154;-91
2023/03/01 15:22:18;;;;;;;10.30;6.80;;;7.30;99.90;;;;;;6372934;22;20168;-91
2023/03/01 15:24:49;;;;;;;13.07;8.00;;;7.30;99.90;;;;;;6373005;22;20170;-91
2023/03/01 15:27:18;;;;;;;13.80;7.43;;;7.30;99.90;;;;;;6372060;22;20154;-92
2023/03/01 15:29:50;;;;;;;14.00;8.03;;;7.20;99.90;;;;;;6371804;22;20239;-91
2023/03/01 15:32:29;;;;;;;13.67;8.63;;;7.20;99.90;;;;;;6372369;22;20187;-92
2023/03/01 15:34:57;;;;;;;13.10;8.73;;;7.10;99.90;;;;;;6370735;22;20163;-91
2023/03/01 15:37:56;;;;;;;16.00;8.80;;;7.10;99.90;;;;;;6371737;22;20477;-90
2023/03/01 15:40:31;;;;;;;13.20;8.27;;;7.00;99.90;;;;;;6370723;22;20227;-92
2023/03/01 15:42:58;;;;;;;12.73;8.03;;;6.90;99.90;;;;;;6370870;22;20165;-90
2023/03/01 15:45:27;;;;;;;14.57;8.10;;;6.90;99.90;;;;;;6371434;22;20170;-90
2023/03/01 15:47:58;;;;;;;11.67;7.70;;;6.80;99.90;;;;;;6371710;22;20188;-91
2023/03/01 15:50:27;;;;;;;13.47;7.87;;;6.70;99.90;;;;;;6371711;22;20570;-91
2023/03/01 15:52:54;;;;;;;14.40;8.20;;;6.70;99.90;;;;;;6371818;22;20269;-91
2023/03/01 15:55:23;;;;;;;14.63;8.57;;;6.70;99.90;;;;;;6372193;22;20169;-92
2023/03/01 15:57:50;;;;;;;15.53;8.77;;;6.60;99.90;;;;;;6371843;22;20170;-92
2023/03/01 16:00:18;;;;;;;22.67;9.93;;;6.60;99.90;;;;;;6371985;22;20188;-91
2023/03/01 16:02:45;;;;;;;13.83;8.97;;;6.50;99.90;;;;;;6371225;22;20198;-91
2023/03/01 16:05:22;;;;;;;16.73;9.90;;;6.50;99.90;;;;;;6371271;22;20168;-90
2023/03/01 16:07:50;;;;;;;16.03;10.17;;;6.30;99.90;;;;;;6371182;22;20160;-90
2023/03/01 16:10:17;;;;;;;16.87;9.13;;;6.20;99.90;;;;;;6371209;22;20175;-91
2023/03/01 16:12:44;;;;;;;17.00;9.10;;;6.10;99.90;;;;;;6370916;22;20191;-91
2023/03/01 16:15:17;;;;;;;20.00;11.20;;;5.90;99.90;;;;;;6371062;22;20175;-89
2023/03/01 16:17:44;;;;;;;25.03;13.70;;;5.70;99.90;;;;;;6371925;22;20171;-90
2023/03/01 16:20:11;;;;;;;22.80;11.30;;;5.60;99.90;;;;;;6371745;22;20250;-90
2023/03/01 16:22:40;;;;;;;21.63;10.43;;;5.60;99.90;;;;;;6371456;22;20174;-89
2023/03/01 16:25:09;;;;;;;18.00;9.03;;;5.50;99.90;;;;;;6371170;22;20168;-91
2023/03/01 16:27:36;;;;;;;21.80;9.73;;;5.30;99.90;;;;;;6371294;22;20670;-90
2023/03/01 16:30:03;;;;;;;25.00;9.57;;;5.20;99.90;;;;;;6370409;22;20169;-90
2023/03/01 16:32:30;;;;;;;19.23;9.80;;;5.10;99.90;;;;;;6370793;22;20183;-91
2023/03/01 16:34:57;;;;;;;22.40;11.03;;;5.00;99.90;;;;;;6370957;22;20641;-90
2023/03/01 16:37:24;;;;;;;22.53;11.83;;;4.90;99.90;;;;;;6371142;22;20634;-90
2023/03/01 16:39:52;;;;;;;20.20;10.30;;;4.80;99.90;;;;;;6371439;22;20177;-91
2023/03/01 16:42:19;;;;;;;16.97;8.77;;;4.60;99.90;;;;;;6371530;22;20170;-90
2023/03/01 16:44:46;;;;;;;15.60;8.67;;;4.60;99.90;;;;;;6370466;22;20166;-89
2023/03/01 16:47:13;;;;;;;15.53;8.80;;;4.50;1.00;;;;;;6370781;22;20170;-91
2023/03/01 16:49:39;;;;;;;21.80;9.43;;;4.40;1.00;;;;;;6371358;22;20165;-90
2023/03/01 16:52:06;;;;;;;15.50;7.93;;;4.30;1.00;;;;;;6370650;22;20172;-89
2023/03/01 16:54:33;;;;;;;15.30;8.17;;;4.20;1.00;;;;;;6370439;22;20191;-89
2023/03/01 16:57:01;;;;;;;13.57;8.40;;;4.10;1.00;;;;;;6371394;22;20172;-90
2023/03/01 16:59:28;;;;;;;13.97;8.10;;;4.00;1.00;;;;;;6371541;22;20170;-90
2023/03/01 17:01:55;;;;;;;14.10;8.17;;;4.00;1.00;;;;;;6371783;22;20269;-91
2023/03/01 17:04:21;;;;;;;18.90;9.33;;;3.90;1.00;;;;;;6372048;22;20165;-91
2023/03/01 17:06:48;;;;;;;17.73;9.30;;;3.80;1.00;;;;;;6372110;22;20169;-91
2023/03/01 17:09:16;;;;;;;14.57;8.67;;;3.70;1.00;;;;;;6371744;22;20170;-91
2023/03/01 17:11:43;;;;;;;15.40;8.47;;;3.70;1.00;;;;;;6371688;22;20200;-91
2023/03/01 17:14:11;;;;;;;14.13;8.83;;;3.60;1.00;;;;;;6371849;22;20224;-92
2023/03/01 17:16:38;;;;;;;13.53;8.67;;;3.50;1.00;;;;;;6372476;22;20176;-92
2023/03/01 17:19:05;;;;;;;17.20;10.13;;;3.50;1.00;;;;;;6372174;22;20175;-92
2023/03/01 17:21:31;;;;;;;27.70;12.07;;;3.40;1.00;;;;;;6372143;22;20165;-92
2023/03/01 17:23:59;;;;;;;24.30;12.73;;;3.30;1.00;;;;;;6371938;22;20618;-93
2023/03/01 17:26:28;;;;;;;24.30;13.40;;;3.30;1.00;;;;;;6371745;22;20622;-90
2023/03/01 17:28:54;;;;;;;21.37;12.50;;;3.20;1.00;;;;;;6372077;22;20218;-93
2023/03/01 17:31:23;;;;;;;23.10;14.17;;;3.20;1.00;;;;;;6371232;22;20171;-92
2023/03/01 17:33:51;;;;;;;27.17;16.03;;;3.10;1.00;;;;;;6369529;22;20185;-93
2023/03/01 17:36:18;;;;;;;31.77;18.53;;;3.00;1.00;;;;;;6369168;22;20834;-92
2023/03/01 17:38:45;;;;;;;32.63;18.53;;;3.00;1.00;;;;;;6369078;22;20173;-91
2023/03/01 17:41:13;;;;;;;32.83;16.80;;;3.00;1.00;;;;;;6368907;22;20257;-93
2023/03/01 17:43:40;;;;;;;36.13;18.10;;;2.90;1.00;;;;;;6370051;22;20173;-91
2023/03/01 17:46:07;;;;;;;29.80;16.23;;;2.80;1.00;;;;;;6369378;22;20165;-93
2023/03/01 17:48:35;;;;;;;33.87;17.77;;;2.80;1.00;;;;;;6369067;22;20244;-94
2023/03/01 17:51:06;;;;;;;31.97;16.73;;;2.70;1.00;;;;;;6368958;22;20158;-94
2023/03/01 17:53:33;;;;;;;25.67;14.37;;;2.60;1.00;;;;;;6370526;22;20169;-94
2023/03/01 17:56:02;;;;;;;29.23;15.43;;;2.60;1.00;;;;;;6370250;22;20179;-94
2023/03/01 17:58:29;;;;;;;27.93;14.63;;;2.50;1.00;;;;;;6370453;22;20645;-93
2023/03/01 18:00:56;;;;;;;28.63;16.07;;;2.50;1.00;;;;;;6371593;22;20165;-94
2023/03/01 18:03:22;;;;;;;57.50;27.97;;;2.40;1.00;;;;;;6371662;22;20528;-94
2023/03/01 18:05:51;;;;;;;37.80;19.73;;;2.40;1.00;;;;;;6371436;22;20165;-94
2023/03/01 18:08:17;;;;;;;26.93;15.50;;;2.30;1.00;;;;;;6373389;22;20221;-94
2023/03/01 18:10:44;;;;;;;34.43;17.83;;;2.30;1.00;;;;;;6375508;22;20432;-94
2023/03/01 18:13:13;;;;;;;31.17;17.67;;;2.30;1.00;;;;;;6376631;22;20208;-93
2023/03/01 18:15:40;;;;;;;32.33;17.70;;;2.30;1.00;;;;;;6373826;22;20178;-94
2023/03/01 18:18:07;;;;;;;35.27;21.17;;;2.20;1.00;;;;;;6382737;22;20172;-95
2023/03/01 18:20:34;;;;;;;35.30;19.87;;;2.20;1.00;;;;;;6381398;22;20233;-94
2023/03/01 18:23:02;;;;;;;53.53;33.00;;;2.20;1.00;;;;;;6375374;22;20250;-93
2023/03/01 18:25:29;;;;;;;45.20;32.50;;;2.10;29.60;;;;;;6376871;22;20251;-93
2023/03/01 18:27:56;;;;;;;42.17;27.97;;;2.10;50.90;;;;;;6380855;22;20268;-94
2023/03/01 18:30:23;;;;;;;32.93;19.87;;;2.10;75.70;;;;;;6376169;22;20203;-93
2023/03/01 18:32:54;;;;;;;30.77;17.40;;;2.10;90.70;;;;;;6377372;22;20228;-95
2023/03/01 18:35:22;;;;;;;32.47;15.63;;;2.10;99.90;;;;;;6380333;22;20161;-94
2023/03/01 18:37:49;;;;;;;28.17;15.13;;;2.10;99.90;;;;;;6379434;22;20204;-94
2023/03/01 18:40:18;;;;;;;28.20;15.40;;;2.00;99.90;;;;;;6379500;22;20178;-94
2023/03/01 18:42:44;;;;;;;25.63;14.37;;;2.00;99.90;;;;;;6377943;22;20268;-95
2023/03/01 18:45:13;;;;;;;28.67;14.30;;;2.00;99.90;;;;;;6381125;22;20198;-95
2023/03/01 18:47:40;;;;;;;27.60;15.13;;;2.00;99.90;;;;;;6380710;22;20180;-94
2023/03/01 18:50:07;;;;;;;30.60;16.53;;;1.90;99.90;;;;;;6376264;22;20618;-94
2023/03/01 18:52:34;;;;;;;33.13;16.87;;;1.90;99.90;;;;;;6379389;22;20198;-94
2023/03/01 18:55:01;;;;;;;33.80;18.77;;;1.90;99.90;;;;;;6376283;22;20243;-94
2023/03/01 18:57:29;;;;;;;40.03;24.40;;;1.90;99.90;;;;;;6377224;22;20168;-93
2023/03/01 18:59:56;;;;;;;36.97;20.73;;;1.90;99.90;;;;;;6378729;22;20168;-93
2023/03/01 19:02:23;;;;;;;34.63;19.07;;;1.80;99.90;;;;;;6376502;22;20607;-93
2023/03/01 19:04:50;;;;;;;38.70;19.57;;;1.80;99.90;;;;;;6374724;22;20167;-94